Time,TemperatureF,DewpointF,PressureIn,WindDirection,WindDirectionDegrees,WindSpeedMPH,WindSpeedGustMPH,Humidity,HourlyPrecipIn,Conditions,Clouds,dailyrainin,SoftwareType,DateUTC
2015-05-28 00:02:00,67.7,66.2,30.03,NNE,22,0.0,-999.0,95,-99.99,,,0.00,Acu-Link.com,2015-05-28 04:02:00,
2015-05-28 00:17:00,67.5,66.0,30.03,NNW,337,0.0,-999.0,95,-99.99,,,0.00,Acu-Link.com,2015-05-28 04:17:00,
2015-05-28 00:32:00,67.4,66.5,30.03,ESE,112,0.0,-999.0,97,-99.99,,,0.00,Acu-Link.com,2015-05-28 04:32:00,
2015-05-28 00:47:00,67.4,66.5,30.03,NW,315,0.0,-999.0,97,-99.99,,,0.00,Acu-Link.com,2015-05-28 04:47:00,
2015-05-28 01:04:00,67.2,66.3,30.02,NNW,337,0.0,-999.0,97,-99.99,,,0.00,Acu-Link.com,2015-05-28 05:04:00,
2015-05-28 01:19:00,66.8,65.9,30.02,NNE,22,0.0,-999.0,97,-99.99,,,0.00,Acu-Link.com,2015-05-28 05:19:00,
2015-05-28 01:34:00,66.5,65.9,30.02,NNW,337,0.0,-999.0,98,-99.99,,,0.00,Acu-Link.com,2015-05-28 05:34:00,
2015-05-28 01:50:00,66.3,65.7,30.02,WNW,292,0.0,-999.0,98,-99.99,,,0.00,Acu-Link.com,2015-05-28 05:50:00,
2015-05-28 02:05:00,66.1,65.8,30.01,NNE,22,0.0,-999.0,99,-99.99,,,0.00,Acu-Link.com,2015-05-28 06:05:00,
2015-05-28 02:20:00,65.9,65.6,30.01,NNW,337,0.0,-999.0,99,-99.99,,,0.00,Acu-Link.com,2015-05-28 06:20:00,
2015-05-28 02:36:00,65.7,65.4,30.00,NNW,337,0.0,-999.0,99,-99.99,,,0.00,Acu-Link.com,2015-05-28 06:36:00,
2015-05-28 02:51:00,65.6,65.3,30.00,NW,315,0.0,-999.0,99,-99.99,,,0.00,Acu-Link.com,2015-05-28 06:51:00,
2015-05-28 03:06:00,65.4,65.1,30.01,West,270,0.0,-999.0,99,-99.99,,,0.00,Acu-Link.com,2015-05-28 07:06:00,
2015-05-28 03:21:00,65.2,64.9,30.01,NNW,337,0.0,-999.0,99,-99.99,,,0.00,Acu-Link.com,2015-05-28 07:21:00,
2015-05-28 03:37:00,65.0,64.7,30.01,North,0,0.0,-999.0,99,-99.99,,,0.00,Acu-Link.com,2015-05-28 07:37:00,
2015-05-28 03:52:00,65.0,64.7,30.00,NNE,22,0.0,-999.0,99,-99.99,,,0.00,Acu-Link.com,2015-05-28 07:52:00,
2015-05-28 04:08:00,64.8,64.5,30.00,NW,315,0.0,-999.0,99,-99.99,,,0.00,Acu-Link.com,2015-05-28 08:08:00,
2015-05-28 04:23:00,64.8,64.5,30.00,NE,45,0.0,-999.0,99,-99.99,,,0.00,Acu-Link.com,2015-05-28 08:23:00,
2015-05-28 04:38:00,64.8,64.5,30.00,West,270,0.0,-999.0,99,-99.99,,,0.00,Acu-Link.com,2015-05-28 08:38:00,
2015-05-28 04:54:00,64.8,64.5,30.00,North,0,0.0,-999.0,99,-99.99,,,0.00,Acu-Link.com,2015-05-28 08:54:00,
2015-05-28 05:09:00,65.4,65.1,30.00,NNE,22,0.0,-999.0,99,-99.99,,,0.00,Acu-Link.com,2015-05-28 09:09:00,
2015-05-28 05:24:00,66.1,65.8,30.00,ENE,67,0.0,-999.0,99,-99.99,,,0.00,Acu-Link.com,2015-05-28 09:24:00,
2015-05-28 05:39:00,66.3,66.0,30.00,NNW,337,0.0,-999.0,99,-99.99,,,0.00,Acu-Link.com,2015-05-28 09:39:00,
2015-05-28 05:55:00,66.5,66.2,30.01,SW,225,0.0,-999.0,99,-99.99,,,0.00,Acu-Link.com,2015-05-28 09:55:00,
2015-05-28 06:10:00,67.0,66.7,30.01,West,270,0.0,-999.0,99,-99.99,,,0.00,Acu-Link.com,2015-05-28 10:10:00,
2015-05-28 06:25:00,67.2,66.9,30.02,SW,225,0.0,-999.0,99,-99.99,,,0.00,Acu-Link.com,2015-05-28 10:25:00,
2015-05-28 06:41:00,67.4,67.1,30.03,SSW,202,1.1,-999.0,99,-99.99,,,0.00,Acu-Link.com,2015-05-28 10:41:00,
2015-05-28 06:56:00,67.4,67.1,30.03,SW,225,0.0,-999.0,99,-99.99,,,0.00,Acu-Link.com,2015-05-28 10:56:00,
2015-05-28 07:11:00,67.5,67.2,30.03,SW,225,0.0,-999.0,99,-99.99,,,0.00,Acu-Link.com,2015-05-28 11:11:00,
2015-05-28 07:27:00,67.9,67.6,30.03,SW,225,0.0,-999.0,99,-99.99,,,0.00,Acu-Link.com,2015-05-28 11:27:00,
2015-05-28 07:42:00,68.3,68.0,30.03,SSW,202,0.0,-999.0,99,-99.99,,,0.00,Acu-Link.com,2015-05-28 11:42:00,
2015-05-28 07:57:00,68.8,68.5,30.04,SE,135,2.2,-999.0,99,-99.99,,,0.00,Acu-Link.com,2015-05-28 11:57:00,
2015-05-28 08:12:00,69.7,68.8,30.04,WSW,247,0.0,-999.0,97,-99.99,,,0.00,Acu-Link.com,2015-05-28 12:12:00,
2015-05-28 08:27:00,71.0,69.2,30.04,SW,225,1.7,-999.0,94,-99.99,,,0.00,Acu-Link.com,2015-05-28 12:27:00,
2015-05-28 08:43:00,72.2,69.4,30.04,SW,225,0.0,-999.0,91,-99.99,,,0.00,Acu-Link.com,2015-05-28 12:43:00,
2015-05-28 08:58:00,72.6,69.5,30.05,SSW,202,0.0,-999.0,90,-99.99,,,0.00,Acu-Link.com,2015-05-28 12:58:00,
2015-05-28 09:13:00,73.7,70.2,30.05,ESE,112,0.0,-999.0,89,-99.99,,,0.00,Acu-Link.com,2015-05-28 13:13:00,
2015-05-28 09:28:00,74.0,70.2,30.05,SSW,202,0.0,-999.0,88,-99.99,,,0.00,Acu-Link.com,2015-05-28 13:28:00,
2015-05-28 09:44:00,74.6,70.5,30.05,SE,135,1.7,-999.0,87,-99.99,,,0.00,Acu-Link.com,2015-05-28 13:44:00,
2015-05-28 09:59:00,74.4,69.9,30.04,SW,225,0.0,-999.0,86,-99.99,,,0.00,Acu-Link.com,2015-05-28 13:59:00,
2015-05-28 10:14:00,76.7,70.1,30.04,SSE,157,0.0,-999.0,80,-99.99,,,0.00,Acu-Link.com,2015-05-28 14:14:00,
2015-05-28 10:29:00,78.9,69.9,30.03,WNW,292,0.0,-999.0,74,-99.99,,,0.00,Acu-Link.com,2015-05-28 14:29:00,
2015-05-28 10:45:00,78.7,69.7,30.03,East,90,2.2,-999.0,74,-99.99,,,0.00,Acu-Link.com,2015-05-28 14:45:00,
2015-05-28 11:00:00,79.6,69.8,30.03,SE,135,1.1,-999.0,72,-99.99,,,0.00,Acu-Link.com,2015-05-28 15:00:00,
2015-05-28 11:15:00,78.7,68.9,30.03,SSW,202,1.1,-999.0,72,-99.99,,,0.00,Acu-Link.com,2015-05-28 15:15:00,
2015-05-28 11:30:00,79.6,68.9,30.03,SW,225,1.7,-999.0,70,-99.99,,,0.00,Acu-Link.com,2015-05-28 15:30:00,